Terminal Aerodrome Forecast
Issued by NWS

Home | Current Version | Previous Version | Text Only | Print | Product List | Glossary On
Versions: 1 2 3 4 5 6 7 8 9 10 11 12 13 14 15 16 17
000
FTUS41 KCAR 242320
TAFHUL
TAF
KHUL 242320Z 2500/2524 18006KT P6SM -SN OVC015
     FM250300 29005KT P6SM BKN030
     FM251200 31012G20KT P6SM SCT250=

USA.gov is the U.S. government's official web portal to all federal, state and local government web resources and services.